Time;durP1;ratioP1;P1;durP2;ratioP2;P2;SDS_P1;SDS_P2;PMS_P1;PMS_P2;Temp;Humidity;BMP_temperature;BMP_pressure;BME280_temperature;BME280_humidity;BME280_pressure;Samples;Min_cycle;Max_cycle;Signal;HPM_P1;HPM_P2
2021/12/08 00:02:00;;;;;;;34.50;18.25;;;3.00;99.90;;;;;;4981862;28;20313;-69
2021/12/08 00:04:26;;;;;;;31.08;18.63;;;3.00;99.90;;;;;;4981001;28;20300;-70
2021/12/08 00:06:51;;;;;;;33.65;17.13;;;3.00;99.90;;;;;;4964167;28;20015;-71
2021/12/08 00:09:34;;;;;;;31.58;17.67;;;3.00;99.90;;;;;;4981707;28;20101;-69
2021/12/08 00:14:44;;;;;;;31.00;17.73;;;2.90;99.90;;;;;;4981087;28;20077;-71
2021/12/08 00:17:09;;;;;;;29.70;16.60;;;2.80;99.90;;;;;;4964250;28;20053;-71
2021/12/08 00:19:35;;;;;;;30.48;16.95;;;2.80;99.90;;;;;;4963260;28;20045;-70
2021/12/08 00:22:01;;;;;;;33.67;17.15;;;2.80;99.90;;;;;;4981035;28;20090;-70
2021/12/08 00:24:27;;;;;;;31.80;17.27;;;2.80;99.90;;;;;;4980869;28;20027;-70
2021/12/08 00:26:54;;;;;;;35.45;18.30;;;2.80;99.90;;;;;;4964058;28;20381;-70
2021/12/08 00:29:21;;;;;;;32.60;18.02;;;2.80;99.90;;;;;;4964331;28;20033;-71
2021/12/08 00:31:47;;;;;;;31.33;18.55;;;2.70;99.90;;;;;;4963960;28;20022;-71
2021/12/08 00:34:14;;;;;;;32.92;18.35;;;2.70;99.90;;;;;;4981322;28;20329;-70
2021/12/08 00:36:46;;;;;;;28.45;17.05;;;2.70;99.90;;;;;;4963442;28;20046;-68
2021/12/08 00:39:12;;;;;;;32.17;18.58;;;2.70;99.90;;;;;;4963923;28;20029;-70
2021/12/08 00:41:39;;;;;;;29.70;17.88;;;2.70;99.90;;;;;;4963348;28;20361;-69
2021/12/08 00:44:05;;;;;;;29.40;17.20;;;2.70;99.90;;;;;;4981479;28;20018;-70
2021/12/08 00:46:31;;;;;;;30.95;17.70;;;2.60;99.90;;;;;;4980447;28;20027;-70
2021/12/08 00:48:57;;;;;;;32.83;19.17;;;2.60;99.90;;;;;;4980962;28;20058;-69
2021/12/08 00:51:22;;;;;;;30.63;18.50;;;2.70;99.90;;;;;;4980459;28;20073;-68
2021/12/08 00:53:48;;;;;;;30.95;18.42;;;2.60;99.90;;;;;;4980502;28;20038;-69
2021/12/08 00:56:15;;;;;;;33.15;18.63;;;2.60;99.90;;;;;;4980735;28;20023;-70
2021/12/08 00:58:41;;;;;;;29.63;17.27;;;2.50;99.90;;;;;;4963059;28;20212;-70
2021/12/08 01:01:08;;;;;;;32.92;17.88;;;2.50;99.90;;;;;;4980528;28;20027;-70
2021/12/08 01:03:35;;;;;;;36.33;18.92;;;2.50;99.90;;;;;;4962932;28;20062;-69
2021/12/08 01:06:02;;;;;;;34.15;19.17;;;2.50;99.90;;;;;;4962881;28;20030;-68
2021/12/08 01:08:30;;;;;;;33.05;18.73;;;2.40;99.90;;;;;;4962058;28;20217;-70
2021/12/08 01:11:01;;;;;;;34.60;19.60;;;2.50;99.90;;;;;;4962566;28;20022;-71
2021/12/08 01:13:27;;;;;;;34.33;19.27;;;2.40;99.90;;;;;;4979595;28;20027;-70
2021/12/08 01:15:56;;;;;;;36.55;19.05;;;2.40;99.90;;;;;;4962456;28;20053;-70
2021/12/08 01:18:23;;;;;;;38.53;20.55;;;2.40;99.90;;;;;;4979844;28;20022;-71
2021/12/08 01:20:51;;;;;;;31.98;17.92;;;2.40;99.90;;;;;;4979447;28;20046;-72
2021/12/08 01:23:18;;;;;;;37.95;19.73;;;2.30;99.90;;;;;;4979656;28;20026;-72
2021/12/08 01:25:44;;;;;;;36.95;19.63;;;2.30;99.90;;;;;;4979108;28;20027;-72
2021/12/08 01:28:10;;;;;;;35.97;18.92;;;2.30;99.90;;;;;;4962673;28;20045;-72
2021/12/08 01:30:37;;;;;;;33.38;19.75;;;2.30;99.90;;;;;;4952644;23;20098;-76
2021/12/08 01:33:03;;;;;;;38.92;18.77;;;2.20;99.90;;;;;;4931838;29;20028;-73
2021/12/08 01:35:29;;;;;;;36.97;20.23;;;2.20;99.90;;;;;;4930043;29;20031;-74
2021/12/08 01:37:55;;;;;;;38.83;19.60;;;2.20;99.90;;;;;;4932370;29;20032;-75
2021/12/08 01:40:21;;;;;;;37.67;20.33;;;2.20;99.90;;;;;;4919505;29;20059;-74
2021/12/08 01:42:51;;;;;;;37.03;21.05;;;2.20;99.90;;;;;;4925260;29;20051;-75
2021/12/08 01:48:06;;;;;;;30.05;14.98;;;2.20;99.90;;;;;;4918477;29;20055;-76
2021/12/08 01:50:34;;;;;;;41.65;20.38;;;2.10;99.90;;;;;;4915497;29;20047;-77
2021/12/08 01:53:00;;;;;;;44.08;20.80;;;2.10;99.90;;;;;;4926048;29;20055;-75
2021/12/08 01:55:26;;;;;;;41.85;19.67;;;2.00;99.90;;;;;;4931507;29;20083;-75
2021/12/08 01:57:52;;;;;;;40.25;22.15;;;2.00;99.90;;;;;;4924999;29;20267;-75
2021/12/08 02:00:25;;;;;;;39.13;21.30;;;2.00;99.90;;;;;;4931682;29;20592;-75
2021/12/08 02:02:51;;;;;;;41.90;21.75;;;1.90;99.90;;;;;;4917131;29;20040;-75
2021/12/08 02:05:17;;;;;;;40.60;21.58;;;1.90;99.90;;;;;;4932026;29;20043;-76
2021/12/08 02:07:43;;;;;;;42.60;21.75;;;1.90;99.90;;;;;;4930903;29;20051;-77
2021/12/08 02:10:10;;;;;;;44.65;22.75;;;1.80;99.90;;;;;;4918710;29;20072;-75
2021/12/08 02:12:39;;;;;;;46.08;23.02;;;1.90;99.90;;;;;;4918077;29;20040;-75
2021/12/08 02:15:09;;;;;;;44.63;22.50;;;1.80;99.90;;;;;;4933121;29;20087;-76
2021/12/08 02:17:35;;;;;;;43.13;21.75;;;1.90;99.90;;;;;;4919142;29;20091;-76
2021/12/08 02:20:05;;;;;;;45.58;21.90;;;1.90;99.90;;;;;;4932448;29;20349;-75
2021/12/08 02:22:31;;;;;;;45.78;23.05;;;1.90;99.90;;;;;;4918665;29;20120;-76
2021/12/08 02:24:57;;;;;;;41.70;20.80;;;2.00;99.90;;;;;;4917020;29;20056;-76
2021/12/08 02:27:23;;;;;;;52.45;24.42;;;1.90;99.90;;;;;;4918229;29;20240;-76
2021/12/08 02:29:56;;;;;;;50.75;23.45;;;1.90;99.90;;;;;;4930611;29;20270;-76
2021/12/08 02:48:34;;;;;;;48.38;23.58;;;1.70;99.90;;;;;;4924174;29;20030;-76
2021/12/08 02:51:00;;;;;;;49.42;24.10;;;1.70;99.90;;;;;;4934905;29;20254;-76
2021/12/08 02:53:26;;;;;;;44.75;24.02;;;1.70;99.90;;;;;;4928969;29;20078;-75
2021/12/08 02:55:52;;;;;;;46.92;23.20;;;1.60;99.90;;;;;;4931366;29;20036;-76
2021/12/08 02:58:18;;;;;;;47.60;24.67;;;1.60;99.90;;;;;;4930006;29;20023;-74
2021/12/08 03:00:54;;;;;;;48.85;22.90;;;1.60;99.90;;;;;;4934250;29;20023;-77
2021/12/08 03:03:19;;;;;;;48.50;24.10;;;1.60;99.90;;;;;;4931211;29;20046;-73
2021/12/08 03:05:45;;;;;;;48.50;23.88;;;1.60;99.90;;;;;;4926793;29;20115;-74
2021/12/08 03:08:12;;;;;;;47.75;23.38;;;1.60;99.90;;;;;;4928369;29;20020;-75
2021/12/08 03:10:43;;;;;;;44.75;22.85;;;1.60;99.90;;;;;;4932031;29;20093;-76
2021/12/08 03:13:08;;;;;;;47.42;23.20;;;1.50;99.90;;;;;;4930856;29;20032;-75
2021/12/08 03:15:36;;;;;;;50.25;24.27;;;1.60;99.90;;;;;;4922833;29;20072;-75
2021/12/08 03:18:02;;;;;;;45.63;23.50;;;1.60;99.90;;;;;;4922562;29;20026;-75
2021/12/08 03:20:39;;;;;;;43.88;23.15;;;1.60;99.90;;;;;;4925834;29;20027;-74
2021/12/08 03:23:07;;;;;;;54.95;24.17;;;1.50;99.90;;;;;;4928597;29;20055;-75
2021/12/08 03:25:38;;;;;;;49.38;24.30;;;1.50;99.90;;;;;;4929490;29;20030;-75
2021/12/08 03:28:13;;;;;;;53.80;25.10;;;1.50;99.90;;;;;;4935777;29;20020;-76
2021/12/08 03:30:52;;;;;;;51.28;24.10;;;1.50;99.90;;;;;;4929256;29;20047;-75
2021/12/08 03:33:18;;;;;;;45.72;24.15;;;1.40;99.90;;;;;;4926316;29;20475;-75
2021/12/08 03:35:43;;;;;;;49.58;22.98;;;1.40;99.90;;;;;;4931578;29;20027;-76
2021/12/08 03:38:09;;;;;;;55.28;24.73;;;1.40;99.90;;;;;;4929136;29;20119;-74
2021/12/08 03:40:35;;;;;;;49.67;23.35;;;1.40;99.90;;;;;;4932700;29;20032;-73
2021/12/08 03:43:01;;;;;;;53.97;24.48;;;1.40;99.90;;;;;;4929297;29;20027;-73
2021/12/08 03:45:34;;;;;;;55.22;25.23;;;1.40;99.90;;;;;;4927229;29;20074;-74
2021/12/08 03:48:13;;;;;;;54.58;24.60;;;1.40;99.90;;;;;;4923299;29;20031;-77
2021/12/08 03:50:42;;;;;;;52.47;24.45;;;1.40;99.90;;;;;;4934226;29;20070;-75
2021/12/08 03:53:12;;;;;;;56.50;25.20;;;1.30;99.90;;;;;;4933578;29;20046;-77
2021/12/08 03:55:40;;;;;;;57.17;24.67;;;1.40;99.90;;;;;;4922105;29;20768;-75
2021/12/08 03:58:05;;;;;;;58.33;25.27;;;1.40;99.90;;;;;;4934222;29;20137;-75
2021/12/08 04:00:31;;;;;;;54.90;24.27;;;1.40;99.90;;;;;;4925778;29;20024;-77
2021/12/08 04:03:01;;;;;;;59.40;25.48;;;1.40;99.90;;;;;;4927689;29;20035;-77
2021/12/08 04:05:53;;;;;;;56.85;25.60;;;1.30;99.90;;;;;;4932300;29;20031;-75
2021/12/08 04:08:20;;;;;;;51.05;23.73;;;1.30;99.90;;;;;;4931501;28;20063;-76
2021/12/08 04:10:50;;;;;;;53.95;24.65;;;1.30;99.90;;;;;;4923000;29;20116;-75
2021/12/08 04:13:18;;;;;;;64.22;26.95;;;1.20;99.90;;;;;;4926175;29;20048;-76
2021/12/08 04:15:44;;;;;;;56.60;26.25;;;1.20;99.90;;;;;;4932055;29;20439;-77
2021/12/08 04:18:10;;;;;;;56.83;25.10;;;1.20;99.90;;;;;;4932653;29;20046;-76
2021/12/08 04:20:41;;;;;;;60.60;26.65;;;1.20;99.90;;;;;;4918680;29;20087;-77
2021/12/08 04:23:09;;;;;;;62.28;26.48;;;1.20;99.90;;;;;;4919518;29;20048;-78
2021/12/08 04:25:37;;;;;;;61.20;25.88;;;1.10;99.90;;;;;;4932825;29;20333;-77
2021/12/08 04:28:08;;;;;;;59.13;24.70;;;1.20;99.90;;;;;;4928221;29;20075;-77
2021/12/08 04:30:50;;;;;;;64.35;24.83;;;1.10;99.90;;;;;;4925968;29;20245;-77
2021/12/08 04:33:17;;;;;;;54.75;24.48;;;1.20;99.90;;;;;;4925670;29;20115;-76
2021/12/08 04:35:47;;;;;;;59.28;26.30;;;1.10;99.90;;;;;;4932837;29;20031;-77
2021/12/08 04:38:17;;;;;;;57.25;24.92;;;1.10;99.90;;;;;;4933596;29;20103;-77
2021/12/08 04:41:04;;;;;;;55.30;25.75;;;1.10;99.90;;;;;;4924798;29;20043;-77
2021/12/08 04:44:29;;;;;;;61.65;27.75;;;1.10;99.90;;;;;;4932282;29;20051;-76
2021/12/08 04:47:15;;;;;;;61.10;25.40;;;1.10;99.90;;;;;;4917952;29;20048;-76
2021/12/08 04:50:19;;;;;;;64.15;25.90;;;1.10;99.90;;;;;;4923499;29;20306;-76
2021/12/08 05:04:31;;;;;;;60.03;25.83;;;0.90;99.90;;;;;;4884378;29;20048;-75
2021/12/08 05:07:15;;;;;;;59.58;24.67;;;0.90;99.90;;;;;;4918202;29;20275;-74
2021/12/08 05:09:43;;;;;;;60.30;25.60;;;1.00;99.90;;;;;;4932019;29;20303;-75
2021/12/08 05:12:20;;;;;;;53.67;25.23;;;0.90;99.90;;;;;;4932203;29;20084;-74
2021/12/08 05:14:50;;;;;;;58.65;25.42;;;0.90;99.90;;;;;;4920664;29;20045;-75
2021/12/08 05:17:30;;;;;;;58.97;25.70;;;0.80;99.90;;;;;;4932971;29;20059;-75
2021/12/08 05:20:05;;;;;;;56.58;25.38;;;0.80;99.90;;;;;;4933869;29;20365;-75
2021/12/08 05:22:36;;;;;;;54.05;24.15;;;0.80;99.90;;;;;;4933071;29;20036;-75
2021/12/08 05:25:11;;;;;;;55.35;24.40;;;0.80;99.90;;;;;;4932593;29;20035;-75
2021/12/08 05:27:44;;;;;;;53.20;24.90;;;0.80;99.90;;;;;;4933310;29;20024;-76
2021/12/08 05:30:21;;;;;;;58.83;25.83;;;0.90;99.90;;;;;;4920855;29;20240;-75
2021/12/08 05:32:49;;;;;;;57.15;25.02;;;0.90;99.90;;;;;;4918173;29;20416;-76
2021/12/08 05:35:17;;;;;;;52.15;23.02;;;1.00;99.90;;;;;;4919053;29;20324;-76
2021/12/08 05:37:43;;;;;;;52.85;24.35;;;0.90;99.90;;;;;;4919674;29;20040;-75
2021/12/08 05:40:15;;;;;;;53.83;22.75;;;0.90;99.90;;;;;;4920963;29;20044;-73
2021/12/08 05:42:41;;;;;;;55.67;23.83;;;1.00;99.90;;;;;;4931787;29;20111;-73
2021/12/08 05:45:13;;;;;;;59.15;24.45;;;0.90;99.90;;;;;;4919850;29;20189;-74
2021/12/08 05:47:40;;;;;;;54.38;23.88;;;0.80;99.90;;;;;;4922366;29;20038;-74
2021/12/08 05:50:10;;;;;;;49.13;22.83;;;0.80;99.90;;;;;;4931871;29;20144;-73
2021/12/08 05:52:36;;;;;;;48.75;23.40;;;0.80;99.90;;;;;;4925147;29;20042;-73
2021/12/08 05:55:05;;;;;;;53.10;25.90;;;0.80;99.90;;;;;;4928961;29;20031;-72
2021/12/08 05:57:35;;;;;;;50.55;23.80;;;0.80;99.90;;;;;;4921766;29;20038;-76
2021/12/08 06:00:08;;;;;;;53.30;24.65;;;0.80;99.90;;;;;;4923358;29;20027;-74
2021/12/08 06:02:36;;;;;;;50.30;22.20;;;0.80;99.90;;;;;;4913416;29;20062;-74
2021/12/08 06:05:08;;;;;;;49.40;23.05;;;0.80;99.90;;;;;;4918712;29;20099;-74
2021/12/08 06:07:34;;;;;;;52.30;22.85;;;0.80;99.90;;;;;;4921145;29;20052;-74
2021/12/08 06:10:06;;;;;;;49.85;22.55;;;0.70;99.90;;;;;;4933222;29;20043;-74
2021/12/08 06:12:31;;;;;;;46.53;22.05;;;0.80;99.90;;;;;;4932388;29;20039;-75
2021/12/08 06:14:57;;;;;;;42.70;21.58;;;0.80;99.90;;;;;;4931874;29;20507;-74
2021/12/08 06:17:27;;;;;;;46.70;21.75;;;0.80;99.90;;;;;;4933131;29;20072;-74
2021/12/08 06:19:54;;;;;;;56.60;24.77;;;0.80;99.90;;;;;;4927065;29;20304;-74
2021/12/08 06:22:22;;;;;;;52.22;23.27;;;0.70;99.90;;;;;;4935301;29;20055;-75
2021/12/08 06:24:49;;;;;;;46.58;22.88;;;0.70;99.90;;;;;;4937122;29;20019;-75
2021/12/08 06:27:15;;;;;;;47.47;22.48;;;0.70;99.90;;;;;;4938154;29;20059;-76
2021/12/08 06:29:43;;;;;;;47.22;22.27;;;0.60;99.90;;;;;;4921729;29;20055;-75
2021/12/08 06:32:11;;;;;;;42.38;21.63;;;0.60;99.90;;;;;;4925663;29;20043;-73
2021/12/08 06:34:41;;;;;;;48.83;21.90;;;0.60;99.90;;;;;;4921293;29;20035;-74
2021/12/08 06:37:20;;;;;;;48.45;22.10;;;0.60;99.90;;;;;;4936079;29;20031;-75
2021/12/08 06:40:11;;;;;;;44.63;20.95;;;0.60;99.90;;;;;;4924784;29;20062;-75
2021/12/08 06:42:40;;;;;;;45.35;20.48;;;0.60;99.90;;;;;;4921342;29;20056;-73
2021/12/08 06:45:13;;;;;;;39.85;20.00;;;0.60;99.90;;;;;;4934971;29;20019;-73
2021/12/08 06:47:39;;;;;;;42.53;21.52;;;0.60;99.90;;;;;;4922965;29;20036;-74
2021/12/08 06:50:12;;;;;;;43.28;20.65;;;0.60;99.90;;;;;;4935363;29;20095;-74
2021/12/08 06:52:38;;;;;;;43.15;20.45;;;0.60;99.90;;;;;;4934001;29;20226;-76
2021/12/08 06:55:14;;;;;;;42.80;20.35;;;0.60;99.90;;;;;;4921844;29;20212;-76
2021/12/08 06:57:46;;;;;;;40.72;19.35;;;0.70;99.90;;;;;;4922763;29;20032;-76
2021/12/08 07:00:35;;;;;;;39.65;18.30;;;0.70;99.90;;;;;;4926156;29;20043;-75
2021/12/08 07:03:32;;;;;;;42.88;20.88;;;0.80;99.90;;;;;;4927972;29;20111;-75
2021/12/08 07:08:35;;;;;;;34.70;17.73;;;0.70;99.90;;;;;;4930076;29;20330;-75
2021/12/08 07:11:05;;;;;;;36.67;18.02;;;0.80;99.90;;;;;;4920856;29;20024;-79
2021/12/08 07:13:33;;;;;;;33.72;17.27;;;0.80;99.90;;;;;;4927915;29;20090;-76
2021/12/08 07:16:12;;;;;;;35.60;16.98;;;0.80;99.90;;;;;;4923623;29;20035;-76
2021/12/08 07:18:51;;;;;;;35.63;17.55;;;0.80;99.90;;;;;;4933666;29;20123;-77
2021/12/08 07:21:17;;;;;;;35.40;18.23;;;0.80;99.90;;;;;;4928963;29;20042;-75
2021/12/08 07:23:49;;;;;;;32.75;16.33;;;0.90;99.90;;;;;;4936414;29;20059;-75
2021/12/08 07:26:25;;;;;;;36.72;16.98;;;0.90;99.90;;;;;;4920906;29;20358;-77
2021/12/08 07:28:52;;;;;;;30.70;17.35;;;1.00;99.90;;;;;;4926434;28;20040;-76
2021/12/08 07:31:40;;;;;;;38.03;17.45;;;1.00;99.90;;;;;;4920675;29;20258;-74
2021/12/08 07:34:09;;;;;;;32.88;16.83;;;1.00;99.90;;;;;;4920746;29;20080;-76
2021/12/08 07:36:43;;;;;;;33.78;16.70;;;1.00;99.90;;;;;;4934595;29;20067;-76
2021/12/08 07:39:14;;;;;;;32.92;16.42;;;1.00;99.90;;;;;;4933588;29;20095;-76
2021/12/08 07:41:42;;;;;;;35.13;16.98;;;1.00;99.90;;;;;;4934161;29;20036;-79
2021/12/08 07:44:11;;;;;;;33.78;17.52;;;1.00;99.90;;;;;;4922782;29;20453;-76
2021/12/08 07:46:47;;;;;;;;;;;1.00;99.90;;;;;;4925423;29;20054;-77
2021/12/08 07:49:21;;;;;;;34.45;17.23;;;1.00;99.90;;;;;;4929485;29;20155;-77
2021/12/08 07:51:58;;;;;;;34.50;16.90;;;1.00;99.90;;;;;;4921245;29;20032;-78
2021/12/08 07:54:25;;;;;;;27.60;15.50;;;1.00;99.90;;;;;;4930183;29;20035;-78
2021/12/08 07:56:54;;;;;;;30.23;16.92;;;1.20;99.90;;;;;;4922236;29;20524;-78
2021/12/08 07:59:21;;;;;;;27.67;15.10;;;1.20;99.90;;;;;;4921207;29;20050;-77
2021/12/08 08:01:52;;;;;;;27.08;14.93;;;1.20;99.90;;;;;;4923651;29;20201;-75
2021/12/08 08:04:21;;;;;;;29.73;16.20;;;1.30;99.90;;;;;;4933484;29;20035;-76
2021/12/08 08:06:51;;;;;;;26.15;14.32;;;1.20;99.90;;;;;;4925011;29;20032;-76
2021/12/08 08:09:22;;;;;;;27.10;15.73;;;1.30;99.90;;;;;;4923233;29;20091;-75
2021/12/08 08:11:57;;;;;;;26.52;14.80;;;1.30;99.90;;;;;;4930693;29;20028;-75
2021/12/08 08:14:31;;;;;;;23.42;14.70;;;1.40;99.90;;;;;;4919786;29;20035;-76
2021/12/08 08:16:59;;;;;;;25.13;13.85;;;1.50;99.90;;;;;;4930244;29;20329;-77
2021/12/08 08:19:29;;;;;;;19.30;10.43;;;1.60;99.90;;;;;;4933538;29;20032;-78
2021/12/08 08:22:06;;;;;;;26.80;14.77;;;1.50;99.90;;;;;;4920563;29;20302;-79
2021/12/08 08:24:32;;;;;;;33.75;15.80;;;1.50;99.90;;;;;;4931302;29;20087;-76
2021/12/08 08:27:01;;;;;;;26.55;14.80;;;1.50;99.90;;;;;;4919857;29;20023;-78
2021/12/08 08:29:28;;;;;;;27.40;15.25;;;1.40;99.90;;;;;;4921817;29;20043;-76
2021/12/08 08:32:05;;;;;;;29.33;15.38;;;1.40;99.90;;;;;;4930827;29;20039;-79
2021/12/08 08:34:51;;;;;;;29.95;15.73;;;1.40;99.90;;;;;;4922081;29;20031;-76
2021/12/08 08:37:18;;;;;;;30.58;15.07;;;1.40;99.90;;;;;;4933414;29;20103;-80
2021/12/08 08:39:50;;;;;;;25.58;14.25;;;1.40;99.90;;;;;;4924470;29;20099;-77
2021/12/08 08:42:30;;;;;;;29.98;16.58;;;1.40;99.90;;;;;;4922547;29;20860;-76
2021/12/08 08:45:08;;;;;;;28.52;15.55;;;1.40;99.90;;;;;;4925458;29;20023;-77
2021/12/08 08:47:38;;;;;;;26.33;15.20;;;1.40;99.90;;;;;;4921509;29;20024;-77
2021/12/08 08:50:07;;;;;;;26.50;14.73;;;1.40;99.90;;;;;;4923858;29;20012;-76
2021/12/08 08:52:41;;;;;;;28.63;15.75;;;1.50;99.90;;;;;;4925657;29;20083;-76
2021/12/08 08:55:32;;;;;;;28.42;14.60;;;1.50;99.90;;;;;;4931465;29;20091;-77
2021/12/08 08:58:00;;;;;;;28.30;14.95;;;1.50;99.90;;;;;;4922063;29;20138;-75
2021/12/08 09:00:35;;;;;;;26.50;14.40;;;1.50;99.90;;;;;;4925268;29;20287;-75
2021/12/08 09:03:07;;;;;;;30.98;15.43;;;1.60;99.90;;;;;;4919282;29;20032;-76
2021/12/08 09:05:43;;;;;;;30.73;16.27;;;1.60;99.90;;;;;;4922758;29;20054;-75
2021/12/08 09:08:11;;;;;;;26.10;15.07;;;1.70;99.90;;;;;;4932570;29;20588;-76
2021/12/08 09:10:41;;;;;;;28.80;15.90;;;1.80;99.90;;;;;;4923734;29;20273;-76
2021/12/08 09:13:14;;;;;;;31.80;15.23;;;1.70;99.90;;;;;;4940058;29;20247;-76
2021/12/08 09:15:50;;;;;;;26.95;15.48;;;1.70;99.90;;;;;;4918699;29;20047;-76
2021/12/08 09:18:30;;;;;;;28.42;14.50;;;1.80;99.90;;;;;;4935145;29;20020;-76
2021/12/08 09:21:16;;;;;;;27.25;15.52;;;1.80;99.90;;;;;;4933100;29;20023;-75
2021/12/08 09:24:12;;;;;;;27.70;15.15;;;1.80;99.90;;;;;;4921123;29;20074;-74
2021/12/08 09:26:43;;;;;;;33.83;14.98;;;1.80;99.90;;;;;;4924163;29;20050;-74
2021/12/08 09:29:14;;;;;;;27.10;13.45;;;1.70;99.90;;;;;;4933700;29;20298;-74
2021/12/08 09:31:53;;;;;;;24.10;13.80;;;1.70;99.90;;;;;;4922520;29;20056;-74
2021/12/08 09:34:40;;;;;;;25.65;13.90;;;1.70;99.90;;;;;;4923763;29;20058;-75
2021/12/08 09:37:11;;;;;;;22.55;12.80;;;1.80;99.90;;;;;;4933817;29;20032;-74
2021/12/08 09:39:41;;;;;;;24.60;13.23;;;1.90;99.90;;;;;;4922134;29;20052;-75
2021/12/08 09:42:19;;;;;;;24.75;14.02;;;1.90;99.90;;;;;;4922209;29;20040;-75
2021/12/08 09:44:49;;;;;;;22.67;13.13;;;1.80;99.90;;;;;;4932155;29;20034;-75
2021/12/08 09:47:14;;;;;;;25.83;15.20;;;1.80;99.90;;;;;;4934118;29;20027;-75
2021/12/08 09:49:41;;;;;;;23.75;12.90;;;1.90;99.90;;;;;;4922990;29;20087;-77
2021/12/08 09:52:09;;;;;;;25.75;13.80;;;1.90;99.90;;;;;;4935329;29;20422;-78
2021/12/08 09:54:39;;;;;;;28.27;14.30;;;2.00;99.90;;;;;;4927664;29;20024;-77
2021/12/08 09:57:10;;;;;;;23.25;13.95;;;2.00;99.90;;;;;;4923429;29;20036;-77
2021/12/08 09:59:44;;;;;;;25.15;13.77;;;2.00;99.90;;;;;;4937414;29;20091;-77
2021/12/08 10:02:10;;;;;;;24.60;13.88;;;2.00;99.90;;;;;;4924460;29;20098;-77
2021/12/08 10:04:36;;;;;;;24.58;13.40;;;2.00;99.90;;;;;;4934822;29;20023;-76
2021/12/08 10:07:04;;;;;;;24.83;13.15;;;2.10;99.90;;;;;;4923063;29;20181;-78
2021/12/08 10:09:30;;;;;;;33.42;16.48;;;2.10;99.90;;;;;;4925086;29;20038;-75
2021/12/08 10:11:55;;;;;;;25.02;13.90;;;2.10;99.90;;;;;;4934157;29;20107;-76
2021/12/08 10:14:22;;;;;;;22.90;12.82;;;2.10;99.90;;;;;;4936485;29;20595;-76
2021/12/08 10:16:52;;;;;;;24.63;12.30;;;2.10;99.90;;;;;;4925426;29;20120;-77
2021/12/08 10:19:17;;;;;;;22.25;12.68;;;2.20;99.90;;;;;;4934947;29;20032;-75
2021/12/08 10:21:44;;;;;;;25.90;14.45;;;2.10;99.90;;;;;;4922987;29;20044;-75
2021/12/08 10:24:19;;;;;;;29.27;14.55;;;2.10;99.90;;;;;;4935649;29;20031;-76
2021/12/08 10:26:46;;;;;;;21.10;12.98;;;2.20;99.90;;;;;;4935115;29;20032;-76
2021/12/08 10:29:12;;;;;;;24.52;13.88;;;2.20;99.90;;;;;;4935137;29;20096;-76
2021/12/08 10:31:45;;;;;;;24.63;13.88;;;2.30;99.90;;;;;;4921895;29;20283;-76
2021/12/08 10:36:57;;;;;;;23.38;14.27;;;2.20;99.90;;;;;;4923436;29;20059;-77
2021/12/08 10:39:28;;;;;;;28.23;14.50;;;2.20;99.90;;;;;;4931064;29;20028;-76
2021/12/08 10:42:06;;;;;;;24.67;13.85;;;2.30;99.90;;;;;;4918667;29;20067;-75
2021/12/08 10:47:17;;;;;;;23.08;12.90;;;2.40;99.90;;;;;;4923107;29;20271;-77
2021/12/08 10:55:00;;;;;;;19.65;12.27;;;2.50;99.90;;;;;;4928318;29;20095;-76
2021/12/08 10:57:37;;;;;;;20.65;11.98;;;2.50;99.90;;;;;;4927446;29;20028;-77
2021/12/08 11:00:12;;;;;;;18.73;11.15;;;2.50;99.90;;;;;;4934756;29;20034;-76
2021/12/08 11:03:01;;;;;;;17.88;10.32;;;2.60;99.90;;;;;;4923998;29;20039;-76
2021/12/08 11:05:29;;;;;;;;;;;2.70;99.90;;;;;;4922950;29;20299;-75
2021/12/08 11:08:05;;;;;;;17.77;9.88;;;2.70;99.90;;;;;;4934923;29;20143;-75
2021/12/08 11:10:34;;;;;;;15.48;10.27;;;2.80;99.90;;;;;;4934464;29;20379;-76
2021/12/08 11:13:00;;;;;;;15.25;9.60;;;2.70;99.90;;;;;;4922370;29;20428;-75
2021/12/08 11:15:28;;;;;;;15.48;9.25;;;2.90;99.90;;;;;;4943038;29;20032;-74
2021/12/08 11:18:21;;;;;;;15.48;9.65;;;3.00;99.90;;;;;;4933650;29;20031;-79
2021/12/08 11:20:59;;;;;;;16.88;9.05;;;3.00;99.90;;;;;;4919865;29;20118;-78
2021/12/08 11:23:44;;;;;;;;;;;3.00;99.90;;;;;;4919943;29;20095;-74
2021/12/08 11:26:37;;;;;;;13.48;8.65;;;3.00;99.90;;;;;;4924252;29;19915;-77
2021/12/08 11:29:15;;;;;;;12.60;7.97;;;3.10;99.90;;;;;;4934182;29;20036;-72
2021/12/08 11:31:45;;;;;;;14.35;8.43;;;3.30;99.90;;;;;;4940071;29;20035;-76
2021/12/08 11:34:27;;;;;;;12.25;7.72;;;3.40;99.90;;;;;;4925364;29;20079;-78
2021/12/08 11:37:00;;;;;;;12.80;7.85;;;3.40;99.90;;;;;;4931308;29;20039;-76
2021/12/08 11:39:39;;;;;;;11.65;6.50;;;3.40;99.90;;;;;;4934580;29;20043;-72
2021/12/08 11:42:08;;;;;;;12.50;7.80;;;3.40;99.90;;;;;;4924176;29;20040;-74
2021/12/08 11:44:40;;;;;;;10.35;7.07;;;3.30;99.90;;;;;;4919864;29;20306;-78
2021/12/08 11:47:20;;;;;;;13.57;7.15;;;3.30;99.90;;;;;;4922308;29;20028;-70
2021/12/08 11:49:54;;;;;;;13.32;7.97;;;3.30;99.90;;;;;;4928382;29;20111;-73
2021/12/08 11:52:25;;;;;;;13.60;6.90;;;3.40;99.90;;;;;;4920980;29;20179;-78
2021/12/08 11:55:00;;;;;;;12.82;7.15;;;3.30;99.90;;;;;;4920497;29;20084;-77
2021/12/08 11:57:36;;;;;;;12.27;6.93;;;3.40;99.90;;;;;;4933231;29;20028;-74
2021/12/08 12:00:14;;;;;;;11.50;6.72;;;3.40;99.90;;;;;;4924476;29;20028;-76
2021/12/08 12:02:58;;;;;;;8.77;6.18;;;3.40;99.90;;;;;;4919480;29;20140;-72
2021/12/08 12:05:26;;;;;;;11.73;7.10;;;3.50;99.90;;;;;;4920562;29;20036;-75
2021/12/08 12:07:52;;;;;;;12.27;7.00;;;3.50;99.90;;;;;;4919622;29;20016;-74
2021/12/08 12:10:21;;;;;;;10.15;6.68;;;3.60;99.90;;;;;;4920714;29;20051;-73
2021/12/08 12:12:47;;;;;;;8.70;5.45;;;3.60;99.90;;;;;;4932025;29;20028;-75
2021/12/08 12:15:17;;;;;;;9.88;5.45;;;3.70;99.90;;;;;;4932285;29;20115;-73
2021/12/08 12:17:44;;;;;;;9.35;5.75;;;3.70;99.90;;;;;;4930420;29;20031;-74
2021/12/08 12:20:19;;;;;;;8.93;5.43;;;3.80;99.90;;;;;;4940636;29;20024;-76
2021/12/08 12:23:03;;;;;;;11.35;6.45;;;3.90;99.90;;;;;;4922280;29;20040;-75
2021/12/08 12:25:53;;;;;;;9.13;6.22;;;3.90;99.90;;;;;;4917977;29;20042;-76
2021/12/08 12:28:52;;;;;;;8.68;5.07;;;3.80;99.90;;;;;;4924689;29;20745;-77
2021/12/08 12:31:41;;;;;;;9.23;5.00;;;4.00;99.90;;;;;;4930539;29;20084;-75
2021/12/08 12:34:38;;;;;;;9.70;5.68;;;4.00;99.90;;;;;;4923349;29;20028;-75
2021/12/08 12:37:16;;;;;;;8.70;5.25;;;3.90;99.90;;;;;;4930774;29;20316;-76
2021/12/08 12:39:50;;;;;;;9.82;5.28;;;3.90;99.90;;;;;;4922114;29;20030;-77
2021/12/08 12:42:19;;;;;;;9.02;5.50;;;3.90;99.90;;;;;;4921651;29;20147;-77
2021/12/08 12:45:07;;;;;;;10.48;5.50;;;3.90;99.90;;;;;;4929411;29;20094;-76
2021/12/08 12:47:33;;;;;;;9.65;5.47;;;3.90;99.90;;;;;;4919261;29;20032;-75
2021/12/08 12:50:20;;;;;;;8.00;5.15;;;4.00;99.90;;;;;;4929786;29;20194;-75
2021/12/08 12:52:55;;;;;;;11.10;5.53;;;3.90;99.90;;;;;;4926716;29;20088;-75
2021/12/08 12:55:30;;;;;;;9.25;5.18;;;3.90;99.90;;;;;;4930366;29;20023;-76
2021/12/08 12:58:05;;;;;;;7.82;5.00;;;4.00;99.90;;;;;;4926598;29;20046;-76
2021/12/08 13:00:44;;;;;;;6.18;4.25;;;4.00;99.90;;;;;;4925703;29;20283;-76
2021/12/08 13:03:32;;;;;;;7.45;4.63;;;4.10;99.90;;;;;;4923099;29;20084;-76
2021/12/08 13:05:58;;;;;;;8.52;4.93;;;3.90;99.90;;;;;;4925664;29;20086;-75
2021/12/08 13:08:33;;;;;;;7.18;4.60;;;4.00;99.90;;;;;;4923017;29;20091;-76
2021/12/08 13:11:10;;;;;;;6.05;3.70;;;3.90;99.90;;;;;;4932417;29;20293;-77
2021/12/08 13:13:52;;;;;;;7.57;4.75;;;3.90;99.90;;;;;;4932189;29;20078;-72
2021/12/08 13:16:28;;;;;;;8.73;4.80;;;4.00;99.90;;;;;;4930298;29;20579;-76
2021/12/08 13:18:55;;;;;;;8.90;4.35;;;4.00;99.90;;;;;;4925808;29;20031;-76
2021/12/08 13:21:44;;;;;;;6.18;4.03;;;4.10;99.90;;;;;;4923154;29;20071;-75
2021/12/08 13:24:36;;;;;;;7.07;4.30;;;4.10;99.90;;;;;;4920989;29;20114;-75
2021/12/08 13:27:06;;;;;;;6.95;4.38;;;4.10;99.90;;;;;;4935702;28;20147;-74
2021/12/08 13:29:37;;;;;;;7.10;4.60;;;4.20;99.90;;;;;;4922700;29;20785;-74
2021/12/08 13:32:15;;;;;;;7.85;4.53;;;4.20;99.90;;;;;;4920054;29;20086;-74
2021/12/08 13:34:57;;;;;;;7.18;4.07;;;4.20;99.90;;;;;;4919706;29;20040;-76
2021/12/08 13:37:28;;;;;;;7.43;4.35;;;4.10;99.90;;;;;;4931377;29;20036;-72
2021/12/08 13:40:02;;;;;;;7.82;4.70;;;4.10;99.90;;;;;;4926113;29;20099;-71
2021/12/08 13:42:30;;;;;;;6.22;3.28;;;4.10;99.90;;;;;;4918086;29;20084;-72
2021/12/08 13:45:01;;;;;;;5.72;3.45;;;4.00;99.90;;;;;;4928913;29;20362;-74
2021/12/08 13:47:35;;;;;;;6.95;3.92;;;4.00;99.90;;;;;;4933497;29;20740;-71
2021/12/08 13:50:13;;;;;;;6.15;3.78;;;4.00;99.90;;;;;;4924835;29;20047;-72
2021/12/08 13:53:06;;;;;;;6.47;3.67;;;3.90;99.90;;;;;;4928665;29;20055;-73